sensor_id;sensor_type;location;lat;lon;timestamp;pressure;altitude;pressure_sealevel;temperature;humidity
32298;BME280;18782;48.984;8.548;2023-04-03T00:00:18;100814.53;;;5.96;62.14
32298;BME280;18782;48.984;8.548;2023-04-03T00:02:46;100811.78;;;5.93;63.48
32298;BME280;18782;48.984;8.548;2023-04-03T00:05:14;100809.22;;;5.93;62.98
32298;BME280;18782;48.984;8.548;2023-04-03T00:07:41;100806.09;;;5.84;63.81
32298;BME280;18782;48.984;8.548;2023-04-03T00:10:09;100808.66;;;5.84;64.13
32298;BME280;18782;48.984;8.548;2023-04-03T00:12:37;100802.06;;;5.88;63.82
32298;BME280;18782;48.984;8.548;2023-04-03T00:15:05;100802.78;;;5.85;63.43
32298;BME280;18782;48.984;8.548;2023-04-03T00:17:35;100798.28;;;5.81;63.60
32298;BME280;18782;48.984;8.548;2023-04-03T00:20:03;100797.41;;;5.81;63.19
32298;BME280;18782;48.984;8.548;2023-04-03T00:22:31;100792.31;;;5.81;63.49
32298;BME280;18782;48.984;8.548;2023-04-03T00:24:58;100790.53;;;5.80;64.30
32298;BME280;18782;48.984;8.548;2023-04-03T00:27:26;100790.34;;;5.76;63.72
32298;BME280;18782;48.984;8.548;2023-04-03T00:29:54;100790.34;;;5.76;64.69
32298;BME280;18782;48.984;8.548;2023-04-03T00:32:21;100794.59;;;5.76;64.19
32298;BME280;18782;48.984;8.548;2023-04-03T00:34:50;100794.75;;;5.79;63.35
32298;BME280;18782;48.984;8.548;2023-04-03T00:37:18;100805.16;;;5.82;62.25
32298;BME280;18782;48.984;8.548;2023-04-03T00:39:45;100798.22;;;5.80;61.97
32298;BME280;18782;48.984;8.548;2023-04-03T00:42:13;100801.44;;;5.77;62.25
32298;BME280;18782;48.984;8.548;2023-04-03T00:47:45;100800.56;;;5.76;64.23
32298;BME280;18782;48.984;8.548;2023-04-03T00:50:15;100799.69;;;5.76;63.07
32298;BME280;18782;48.984;8.548;2023-04-03T00:52:43;100801.25;;;5.74;64.48
32298;BME280;18782;48.984;8.548;2023-04-03T00:55:13;100808.84;;;5.72;64.04
32298;BME280;18782;48.984;8.548;2023-04-03T00:57:41;100811.47;;;5.74;65.22
32298;BME280;18782;48.984;8.548;2023-04-03T01:00:11;100803.06;;;5.75;65.07
32298;BME280;18782;48.984;8.548;2023-04-03T01:02:40;100807.97;;;5.72;63.65
32298;BME280;18782;48.984;8.548;2023-04-03T01:05:10;100794.25;;;5.70;63.21
32298;BME280;18782;48.984;8.548;2023-04-03T01:07:39;100802.88;;;5.72;63.84
32298;BME280;18782;48.984;8.548;2023-04-03T01:10:10;100801.78;;;5.68;64.80
32298;BME280;18782;48.984;8.548;2023-04-03T01:12:42;100797.22;;;5.63;63.52
32298;BME280;18782;48.984;8.548;2023-04-03T01:15:16;100800.75;;;5.65;65.03
32298;BME280;18782;48.984;8.548;2023-04-03T01:17:46;100805.00;;;5.64;64.39
32298;BME280;18782;48.984;8.548;2023-04-03T01:23:43;100808.50;;;5.66;65.03
32298;BME280;18782;48.984;8.548;2023-04-03T01:26:16;100809.38;;;5.67;64.66
32298;BME280;18782;48.984;8.548;2023-04-03T01:28:43;100809.22;;;5.64;65.48
32298;BME280;18782;48.984;8.548;2023-04-03T01:31:17;100809.22;;;5.64;66.64
32298;BME280;18782;48.984;8.548;2023-04-03T01:33:49;100808.84;;;5.58;66.01
32298;BME280;18782;48.984;8.548;2023-04-03T01:36:20;100805.41;;;5.57;66.42
32298;BME280;18782;48.984;8.548;2023-04-03T01:38:48;100801.81;;;5.54;64.90
32298;BME280;18782;48.984;8.548;2023-04-03T01:41:16;100804.97;;;5.49;65.47
32298;BME280;18782;48.984;8.548;2023-04-03T01:43:46;100808.13;;;5.45;65.82
32298;BME280;18782;48.984;8.548;2023-04-03T01:46:14;100809.72;;;5.43;65.26
32298;BME280;18782;48.984;8.548;2023-04-03T01:48:42;100817.28;;;5.42;65.33
32298;BME280;18782;48.984;8.548;2023-04-03T01:51:11;100805.91;;;5.37;63.92
32298;BME280;18782;48.984;8.548;2023-04-03T01:53:39;100822.75;;;5.33;65.50
32298;BME280;18782;48.984;8.548;2023-04-03T01:56:07;100818.59;;;5.35;65.95
32298;BME280;18782;48.984;8.548;2023-04-03T01:58:35;100819.41;;;5.34;67.47
32298;BME280;18782;48.984;8.548;2023-04-03T02:01:03;100820.00;;;5.30;66.13
32298;BME280;18782;48.984;8.548;2023-04-03T02:03:31;100825.72;;;5.26;65.83
32298;BME280;18782;48.984;8.548;2023-04-03T02:05:59;100828.88;;;5.22;66.02
32298;BME280;18782;48.984;8.548;2023-04-03T02:08:28;100821.22;;;5.22;66.51
32298;BME280;18782;48.984;8.548;2023-04-03T02:10:55;100822.19;;;5.24;65.68
32298;BME280;18782;48.984;8.548;2023-04-03T02:13:23;100820.25;;;5.20;64.66
32298;BME280;18782;48.984;8.548;2023-04-03T02:15:50;100827.81;;;5.18;64.66
32298;BME280;18782;48.984;8.548;2023-04-03T02:18:18;100830.19;;;5.15;64.37
32298;BME280;18782;48.984;8.548;2023-04-03T02:20:46;100824.09;;;5.13;66.02
32298;BME280;18782;48.984;8.548;2023-04-03T02:23:14;100817.13;;;5.11;65.50
32298;BME280;18782;48.984;8.548;2023-04-03T02:25:44;100816.38;;;5.12;65.46
32298;BME280;18782;48.984;8.548;2023-04-03T02:28:12;100815.28;;;5.08;66.01
32298;BME280;18782;48.984;8.548;2023-04-03T02:30:39;100814.06;;;5.02;64.99
32298;BME280;18782;48.984;8.548;2023-04-03T02:33:07;100817.00;;;4.94;65.64
32298;BME280;18782;48.984;8.548;2023-04-03T02:35:35;100815.97;;;4.91;66.04
32298;BME280;18782;48.984;8.548;2023-04-03T02:38:03;100809.78;;;4.87;66.51
32298;BME280;18782;48.984;8.548;2023-04-03T02:40:31;100808.03;;;4.86;67.58
32298;BME280;18782;48.984;8.548;2023-04-03T02:43:00;100809.56;;;4.84;66.19
32298;BME280;18782;48.984;8.548;2023-04-03T02:45:28;100810.97;;;4.79;65.88
32298;BME280;18782;48.984;8.548;2023-04-03T02:47:56;100808.25;;;4.76;66.34
32298;BME280;18782;48.984;8.548;2023-04-03T02:50:23;100802.94;;;4.73;66.25
32298;BME280;18782;48.984;8.548;2023-04-03T02:52:51;100809.25;;;4.65;66.95
32298;BME280;18782;48.984;8.548;2023-04-03T02:55:18;100812.41;;;4.61;66.88
32298;BME280;18782;48.984;8.548;2023-04-03T02:57:49;100814.06;;;4.60;66.27
32298;BME280;18782;48.984;8.548;2023-04-03T03:00:19;100805.13;;;4.54;66.62
32298;BME280;18782;48.984;8.548;2023-04-03T03:02:48;100809.78;;;4.46;67.32
32298;BME280;18782;48.984;8.548;2023-04-03T03:05:16;100808.97;;;4.47;67.25
32298;BME280;18782;48.984;8.548;2023-04-03T03:07:44;100810.28;;;4.40;66.81
32298;BME280;18782;48.984;8.548;2023-04-03T03:10:12;100810.06;;;4.37;67.38
32298;BME280;18782;48.984;8.548;2023-04-03T03:12:40;100803.03;;;4.33;68.67
32298;BME280;18782;48.984;8.548;2023-04-03T03:15:08;100808.81;;;4.31;68.27
32298;BME280;18782;48.984;8.548;2023-04-03T03:17:37;100813.91;;;4.31;68.13
32298;BME280;18782;48.984;8.548;2023-04-03T03:20:06;100808.72;;;4.29;68.53
32298;BME280;18782;48.984;8.548;2023-04-03T03:22:34;100811.84;;;4.25;68.35
32298;BME280;18782;48.984;8.548;2023-04-03T03:25:03;100818.81;;;4.28;68.95
32298;BME280;18782;48.984;8.548;2023-04-03T03:27:32;100811.78;;;4.24;67.90
32298;BME280;18782;48.984;8.548;2023-04-03T03:29:59;100815.78;;;4.20;67.97
32298;BME280;18782;48.984;8.548;2023-04-03T03:32:27;100811.09;;;4.13;69.23
32298;BME280;18782;48.984;8.548;2023-04-03T03:34:56;100815.88;;;4.08;68.81
32298;BME280;18782;48.984;8.548;2023-04-03T03:37:25;100813.44;;;4.10;70.20
32298;BME280;18782;48.984;8.548;2023-04-03T03:39:53;100810.97;;;4.11;70.19
32298;BME280;18782;48.984;8.548;2023-04-03T03:42:21;100816.84;;;4.10;69.51
32298;BME280;18782;48.984;8.548;2023-04-03T03:44:49;100810.78;;;4.08;69.42
32298;BME280;18782;48.984;8.548;2023-04-03T03:47:18;100820.09;;;4.08;70.10
32298;BME280;18782;48.984;8.548;2023-04-03T03:49:46;100808.34;;;4.10;69.25
32298;BME280;18782;48.984;8.548;2023-04-03T03:52:16;100807.47;;;4.09;69.16
32298;BME280;18782;48.984;8.548;2023-04-03T03:54:44;100814.53;;;4.13;69.68
32298;BME280;18782;48.984;8.548;2023-04-03T03:57:12;100815.56;;;4.17;70.56
32298;BME280;18782;48.984;8.548;2023-04-03T03:59:39;100808.94;;;4.19;69.41
32298;BME280;18782;48.984;8.548;2023-04-03T04:02:08;100812.25;;;4.18;68.23
32298;BME280;18782;48.984;8.548;2023-04-03T04:04:35;100816.44;;;4.17;69.13
32298;BME280;18782;48.984;8.548;2023-04-03T04:07:03;100821.75;;;4.21;70.07
32298;BME280;18782;48.984;8.548;2023-04-03T04:09:34;100820.28;;;4.24;69.56
32298;BME280;18782;48.984;8.548;2023-04-03T04:12:02;100817.03;;;4.27;69.86
32298;BME280;18782;48.984;8.548;2023-04-03T04:14:31;100812.66;;;4.24;68.62
32298;BME280;18782;48.984;8.548;2023-04-03T04:17:00;100817.53;;;4.21;70.01
32298;BME280;18782;48.984;8.548;2023-04-03T04:19:28;100817.53;;;4.21;69.92
32298;BME280;18782;48.984;8.548;2023-04-03T04:21:56;100817.38;;;4.18;69.78
32298;BME280;18782;48.984;8.548;2023-04-03T04:24:24;100814.81;;;4.18;70.17
32298;BME280;18782;48.984;8.548;2023-04-03T04:26:55;100820.66;;;4.17;70.89
32298;BME280;18782;48.984;8.548;2023-04-03T04:29:23;100812.06;;;4.15;71.11
32298;BME280;18782;48.984;8.548;2023-04-03T04:31:52;100821.38;;;4.14;69.72
32298;BME280;18782;48.984;8.548;2023-04-03T04:34:21;100813.91;;;4.17;69.39
32298;BME280;18782;48.984;8.548;2023-04-03T04:36:49;100818.91;;;4.16;68.69
32298;BME280;18782;48.984;8.548;2023-04-03T04:39:17;100817.16;;;4.15;69.72
32298;BME280;18782;48.984;8.548;2023-04-03T04:41:45;100818.91;;;4.16;69.81
32298;BME280;18782;48.984;8.548;2023-04-03T04:44:14;100813.81;;;4.16;69.80
32298;BME280;18782;48.984;8.548;2023-04-03T04:46:42;100814.53;;;4.13;70.57
32298;BME280;18782;48.984;8.548;2023-04-03T04:49:10;100818.31;;;4.07;70.26
32298;BME280;18782;48.984;8.548;2023-04-03T04:51:37;100826.75;;;4.06;70.14
32298;BME280;18782;48.984;8.548;2023-04-03T04:54:21;100828.31;;;4.04;68.55
32298;BME280;18782;48.984;8.548;2023-04-03T04:56:49;100825.19;;;4.08;69.36
32298;BME280;18782;48.984;8.548;2023-04-03T04:59:18;100834.59;;;4.09;69.16
32298;BME280;18782;48.984;8.548;2023-04-03T05:01:48;100832.44;;;4.15;68.89
32298;BME280;18782;48.984;8.548;2023-04-03T05:04:16;100841.06;;;4.17;68.65
32298;BME280;18782;48.984;8.548;2023-04-03T05:06:48;100835.97;;;4.17;68.37
32298;BME280;18782;48.984;8.548;2023-04-03T05:09:20;100844.41;;;4.16;68.59
32298;BME280;18782;48.984;8.548;2023-04-03T05:11:49;100844.88;;;4.10;69.01
32298;BME280;18782;48.984;8.548;2023-04-03T05:14:22;100849.38;;;4.01;67.78
32298;BME280;18782;48.984;8.548;2023-04-03T05:16:51;100851.16;;;4.02;68.16
32298;BME280;18782;48.984;8.548;2023-04-03T05:19:22;100851.84;;;4.00;68.96
32298;BME280;18782;48.984;8.548;2023-04-03T05:21:50;100852.72;;;4.00;67.82
32298;BME280;18782;48.984;8.548;2023-04-03T05:24:18;100857.63;;;3.97;68.29
32298;BME280;18782;48.984;8.548;2023-04-03T05:26:46;100857.63;;;3.97;72.33
32298;BME280;18782;48.984;8.548;2023-04-03T05:29:15;100859.09;;;3.93;69.48
32298;BME280;18782;48.984;8.548;2023-04-03T05:31:44;100864.75;;;3.89;70.06
32298;BME280;18782;48.984;8.548;2023-04-03T05:34:12;100872.00;;;3.97;69.38
32298;BME280;18782;48.984;8.548;2023-04-03T05:36:41;100866.25;;;3.99;69.74
32298;BME280;18782;48.984;8.548;2023-04-03T05:39:11;100870.47;;;3.99;68.11
32298;BME280;18782;48.984;8.548;2023-04-03T05:41:41;100868.69;;;3.98;68.53
32298;BME280;18782;48.984;8.548;2023-04-03T05:44:09;100872.59;;;4.06;69.17
32298;BME280;18782;48.984;8.548;2023-04-03T05:46:37;100874.56;;;4.10;68.68
32298;BME280;18782;48.984;8.548;2023-04-03T05:49:09;100879.09;;;4.14;67.75
32298;BME280;18782;48.984;8.548;2023-04-03T05:51:37;100880.75;;;4.13;67.52
32298;BME280;18782;48.984;8.548;2023-04-03T05:54:25;100871.44;;;4.14;68.62
32298;BME280;18782;48.984;8.548;2023-04-03T05:57:00;100879.28;;;4.17;69.31
32298;BME280;18782;48.984;8.548;2023-04-03T05:59:28;100883.19;;;4.12;68.29
32298;BME280;18782;48.984;8.548;2023-04-03T06:01:57;100881.47;;;4.24;68.08
32298;BME280;18782;48.984;8.548;2023-04-03T06:04:26;100875.78;;;4.28;67.33
32298;BME280;18782;48.984;8.548;2023-04-03T06:06:56;100884.00;;;4.24;66.39
32298;BME280;18782;48.984;8.548;2023-04-03T06:09:27;100881.53;;;4.26;67.16
32298;BME280;18782;48.984;8.548;2023-04-03T06:11:55;100888.69;;;4.31;67.19
32298;BME280;18782;48.984;8.548;2023-04-03T06:14:25;100884.38;;;4.43;68.04
32298;BME280;18782;48.984;8.548;2023-04-03T06:16:53;100891.75;;;4.52;66.54
32298;BME280;18782;48.984;8.548;2023-04-03T06:19:21;100889.09;;;4.51;66.70
32298;BME280;18782;48.984;8.548;2023-04-03T06:21:54;100887.53;;;4.53;66.77
32298;BME280;18782;48.984;8.548;2023-04-03T06:24:23;100882.81;;;4.59;66.96
32298;BME280;18782;48.984;8.548;2023-04-03T06:26:52;100882.31;;;4.64;67.56
32298;BME280;18782;48.984;8.548;2023-04-03T06:29:20;100881.13;;;4.72;65.61
32298;BME280;18782;48.984;8.548;2023-04-03T06:31:48;100885.13;;;4.82;65.48
32298;BME280;18782;48.984;8.548;2023-04-03T06:34:16;100887.78;;;4.84;65.57
32298;BME280;18782;48.984;8.548;2023-04-03T06:36:44;100889.44;;;4.83;65.45
32298;BME280;18782;48.984;8.548;2023-04-03T06:39:15;100887.84;;;4.85;66.62
32298;BME280;18782;48.984;8.548;2023-04-03T06:41:43;100895.81;;;4.90;65.46
32298;BME280;18782;48.984;8.548;2023-04-03T06:44:11;100891.22;;;4.84;65.88
32298;BME280;18782;48.984;8.548;2023-04-03T06:46:42;100898.97;;;4.86;66.31
32298;BME280;18782;48.984;8.548;2023-04-03T06:49:11;100883.75;;;4.87;67.03
32298;BME280;18782;48.984;8.548;2023-04-03T06:51:39;100900.34;;;4.81;66.87
32298;BME280;18782;48.984;8.548;2023-04-03T06:54:07;100897.69;;;4.79;67.17
32298;BME280;18782;48.984;8.548;2023-04-03T06:56:36;100898.06;;;4.85;67.14
32298;BME280;18782;48.984;8.548;2023-04-03T06:59:04;100902.41;;;4.86;66.94
32298;BME280;18782;48.984;8.548;2023-04-03T07:01:31;100909.34;;;4.89;68.39
32298;BME280;18782;48.984;8.548;2023-04-03T07:03:59;100909.28;;;4.87;66.69
32298;BME280;18782;48.984;8.548;2023-04-03T07:06:27;100904.63;;;4.95;68.18
32298;BME280;18782;48.984;8.548;2023-04-03T07:08:55;100914.91;;;5.10;67.34
32298;BME280;18782;48.984;8.548;2023-04-03T07:11:22;100917.22;;;5.20;67.07
32298;BME280;18782;48.984;8.548;2023-04-03T07:13:52;100919.34;;;5.27;66.56
32298;BME280;18782;48.984;8.548;2023-04-03T07:16:20;100912.28;;;5.36;65.77
32298;BME280;18782;48.984;8.548;2023-04-03T07:18:47;100912.91;;;5.47;67.36
32298;BME280;18782;48.984;8.548;2023-04-03T07:21:15;100914.88;;;5.51;66.11
32298;BME280;18782;48.984;8.548;2023-04-03T07:23:43;100922.56;;;5.66;66.01
32298;BME280;18782;48.984;8.548;2023-04-03T07:26:11;100922.72;;;5.69;65.78
32298;BME280;18782;48.984;8.548;2023-04-03T07:28:38;100922.13;;;5.73;65.60
32298;BME280;18782;48.984;8.548;2023-04-03T07:31:11;100926.84;;;5.80;66.36
32298;BME280;18782;48.984;8.548;2023-04-03T07:33:40;100927.59;;;5.79;66.38
32298;BME280;18782;48.984;8.548;2023-04-03T07:36:10;100927.78;;;5.82;65.47
32298;BME280;18782;48.984;8.548;2023-04-03T07:38:38;100934.66;;;5.83;65.33
32298;BME280;18782;48.984;8.548;2023-04-03T07:41:06;100933.84;;;5.84;66.94
32298;BME280;18782;48.984;8.548;2023-04-03T07:43:33;100934.75;;;5.70;66.16
32298;BME280;18782;48.984;8.548;2023-04-03T07:46:04;100934.50;;;5.80;66.60
32298;BME280;18782;48.984;8.548;2023-04-03T07:48:33;100936.25;;;5.81;66.71
32298;BME280;18782;48.984;8.548;2023-04-03T07:51:02;100946.91;;;5.89;66.96
32298;BME280;18782;48.984;8.548;2023-04-03T07:53:31;100937.34;;;5.99;65.87
32298;BME280;18782;48.984;8.548;2023-04-03T07:55:59;100942.47;;;5.99;65.08
32298;BME280;18782;48.984;8.548;2023-04-03T07:58:29;100944.75;;;6.10;65.38
32298;BME280;18782;48.984;8.548;2023-04-03T08:00:57;100948.66;;;6.18;65.36
32298;BME280;18782;48.984;8.548;2023-04-03T08:03:25;100950.06;;;6.27;66.15
32298;BME280;18782;48.984;8.548;2023-04-03T08:05:54;100949.19;;;6.27;64.55
32298;BME280;18782;48.984;8.548;2023-04-03T08:08:22;100954.94;;;6.38;66.36
32298;BME280;18782;48.984;8.548;2023-04-03T08:10:51;100946.72;;;6.43;65.00
32298;BME280;18782;48.984;8.548;2023-04-03T08:13:20;100949.16;;;6.57;65.85
32298;BME280;18782;48.984;8.548;2023-04-03T08:15:48;100955.13;;;6.72;64.58
32298;BME280;18782;48.984;8.548;2023-04-03T08:18:17;100954.56;;;6.92;62.71
32298;BME280;18782;48.984;8.548;2023-04-03T08:20:44;100945.97;;;7.06;64.14
32298;BME280;18782;48.984;8.548;2023-04-03T08:23:13;100954.31;;;7.19;62.84
32298;BME280;18782;48.984;8.548;2023-04-03T08:25:44;100942.63;;;7.40;61.19
32298;BME280;18782;48.984;8.548;2023-04-03T08:28:12;100951.28;;;7.26;59.53
32298;BME280;18782;48.984;8.548;2023-04-03T08:31:32;100948.56;;;7.23;59.95
32298;BME280;18782;48.984;8.548;2023-04-03T08:34:00;100951.88;;;7.53;61.34
32298;BME280;18782;48.984;8.548;2023-04-03T08:36:28;100949.06;;;7.48;60.52
32298;BME280;18782;48.984;8.548;2023-04-03T08:38:57;100944.25;;;7.54;59.54
32298;BME280;18782;48.984;8.548;2023-04-03T08:41:29;100945.31;;;7.58;58.93
32298;BME280;18782;48.984;8.548;2023-04-03T08:44:08;100946.63;;;7.51;57.91
32298;BME280;18782;48.984;8.548;2023-04-03T08:46:47;100942.81;;;7.59;58.54
32298;BME280;18782;48.984;8.548;2023-04-03T08:49:24;100953.94;;;7.60;57.21
32298;BME280;18782;48.984;8.548;2023-04-03T08:51:54;100948.25;;;7.49;56.55
32298;BME280;18782;48.984;8.548;2023-04-03T08:54:28;100949.38;;;7.54;58.05
32298;BME280;18782;48.984;8.548;2023-04-03T08:57:02;100951.44;;;7.62;56.74
32298;BME280;18782;48.984;8.548;2023-04-03T08:59:33;100953.38;;;7.66;55.79
32298;BME280;18782;48.984;8.548;2023-04-03T09:02:21;100951.94;;;7.71;57.58
32298;BME280;18782;48.984;8.548;2023-04-03T09:04:50;100953.13;;;7.77;57.03
32298;BME280;18782;48.984;8.548;2023-04-03T09:07:23;100957.59;;;7.98;56.84
32298;BME280;18782;48.984;8.548;2023-04-03T09:09:53;100957.34;;;7.93;55.23
32298;BME280;18782;48.984;8.548;2023-04-03T09:12:25;100953.59;;;7.87;56.39
32298;BME280;18782;48.984;8.548;2023-04-03T09:15:02;100957.03;;;8.03;54.85
32298;BME280;18782;48.984;8.548;2023-04-03T09:17:41;100945.66;;;8.15;54.52
32298;BME280;18782;48.984;8.548;2023-04-03T09:20:20;100953.13;;;8.28;54.60
32298;BME280;18782;48.984;8.548;2023-04-03T09:22:50;100947.84;;;8.41;54.39
32298;BME280;18782;48.984;8.548;2023-04-03T09:25:21;100956.59;;;8.62;55.61
32298;BME280;18782;48.984;8.548;2023-04-03T09:27:51;100953.50;;;8.70;53.88
32298;BME280;18782;48.984;8.548;2023-04-03T09:30:20;100960.66;;;8.77;54.84
32298;BME280;18782;48.984;8.548;2023-04-03T09:32:52;100955.84;;;8.83;53.62
32298;BME280;18782;48.984;8.548;2023-04-03T09:35:23;100951.13;;;8.92;53.01
32298;BME280;18782;48.984;8.548;2023-04-03T09:38:19;100951.13;;;9.10;53.24
32298;BME280;18782;48.984;8.548;2023-04-03T09:40:48;100953.19;;;8.99;51.21
32298;BME280;18782;48.984;8.548;2023-04-03T09:43:26;100943.84;;;9.01;51.94
32298;BME280;18782;48.984;8.548;2023-04-03T09:45:55;100937.78;;;8.99;52.29
32298;BME280;18782;48.984;8.548;2023-04-03T09:48:25;100946.75;;;8.89;51.96
32298;BME280;18782;48.984;8.548;2023-04-03T09:50:57;100943.28;;;8.89;52.60
32298;BME280;18782;48.984;8.548;2023-04-03T09:53:32;100932.06;;;8.87;52.75
32298;BME280;18782;48.984;8.548;2023-04-03T09:56:00;100944.66;;;9.00;52.73
32298;BME280;18782;48.984;8.548;2023-04-03T09:58:31;100931.69;;;8.97;51.20
32298;BME280;18782;48.984;8.548;2023-04-03T10:01:23;100935.66;;;9.08;51.28
32298;BME280;18782;48.984;8.548;2023-04-03T10:04:08;100935.50;;;9.05;51.51
32298;BME280;18782;48.984;8.548;2023-04-03T10:06:39;100938.78;;;9.03;51.02
32298;BME280;18782;48.984;8.548;2023-04-03T10:09:18;100933.97;;;8.91;51.10
32298;BME280;18782;48.984;8.548;2023-04-03T10:12:01;100932.78;;;9.02;50.96
32298;BME280;18782;48.984;8.548;2023-04-03T10:14:31;100935.50;;;9.05;50.31
32298;BME280;18782;48.984;8.548;2023-04-03T10:17:04;100925.38;;;9.08;50.01
32298;BME280;18782;48.984;8.548;2023-04-03T10:19:41;100923.41;;;8.85;50.38
32298;BME280;18782;48.984;8.548;2023-04-03T10:22:16;100919.72;;;8.98;49.90
32298;BME280;18782;48.984;8.548;2023-04-03T10:24:52;100932.59;;;9.17;49.44
32298;BME280;18782;48.984;8.548;2023-04-03T10:27:30;100927.66;;;8.84;48.96
32298;BME280;18782;48.984;8.548;2023-04-03T10:30:04;100920.53;;;8.97;49.52
32298;BME280;18782;48.984;8.548;2023-04-03T10:32:48;100935.06;;;9.14;49.01
32298;BME280;18782;48.984;8.548;2023-04-03T10:35:33;100929.47;;;9.42;46.98
32298;BME280;18782;48.984;8.548;2023-04-03T10:38:10;100938.09;;;9.44;46.41
32298;BME280;18782;48.984;8.548;2023-04-03T10:40:49;100931.38;;;9.46;46.19
32298;BME280;18782;48.984;8.548;2023-04-03T10:43:26;100925.53;;;9.70;46.38
32298;BME280;18782;48.984;8.548;2023-04-03T10:46:00;100923.78;;;9.68;44.50
32298;BME280;18782;48.984;8.548;2023-04-03T10:48:40;100932.16;;;9.64;45.68
32298;BME280;18782;48.984;8.548;2023-04-03T10:51:23;100930.41;;;9.63;44.21
32298;BME280;18782;48.984;8.548;2023-04-03T10:53:56;100925.53;;;9.70;44.00
32298;BME280;18782;48.984;8.548;2023-04-03T10:56:33;100930.00;;;9.54;44.70
32298;BME280;18782;48.984;8.548;2023-04-03T10:59:13;100934.94;;;9.69;43.78
32298;BME280;18782;48.984;8.548;2023-04-03T11:01:45;100935.53;;;9.83;43.08
32298;BME280;18782;48.984;8.548;2023-04-03T11:04:16;100927.22;;;10.09;43.05
32298;BME280;18782;48.984;8.548;2023-04-03T11:06:49;100931.00;;;10.17;43.45
32298;BME280;18782;48.984;8.548;2023-04-03T11:09:23;100926.91;;;10.42;42.82
32298;BME280;18782;48.984;8.548;2023-04-03T11:11:56;100916.84;;;10.48;43.19
32298;BME280;18782;48.984;8.548;2023-04-03T11:14:27;100931.00;;;10.59;44.32
32298;BME280;18782;48.984;8.548;2023-04-03T11:17:04;100914.78;;;10.83;43.43
32298;BME280;18782;48.984;8.548;2023-04-03T11:19:36;100914.66;;;10.80;43.25
32298;BME280;18782;48.984;8.548;2023-04-03T11:22:15;100917.31;;;10.81;42.83
32298;BME280;18782;48.984;8.548;2023-04-03T11:24:53;100909.63;;;10.83;42.47
32298;BME280;18782;48.984;8.548;2023-04-03T11:27:25;100907.75;;;10.79;43.20
32298;BME280;18782;48.984;8.548;2023-04-03T11:29:57;100911.78;;;10.72;42.06
32298;BME280;18782;48.984;8.548;2023-04-03T11:32:54;100900.63;;;10.71;42.54
32298;BME280;18782;48.984;8.548;2023-04-03T11:35:28;100913.97;;;10.40;43.52
32298;BME280;18782;48.984;8.548;2023-04-03T11:37:59;100903.41;;;10.13;43.01
32298;BME280;18782;48.984;8.548;2023-04-03T11:40:30;100912.72;;;10.31;44.39
32298;BME280;18782;48.984;8.548;2023-04-03T11:43:05;100907.34;;;10.05;43.80
32298;BME280;18782;48.984;8.548;2023-04-03T11:45:40;100914.34;;;10.29;44.81
32298;BME280;18782;48.984;8.548;2023-04-03T11:48:50;100918.09;;;10.37;43.81
32298;BME280;18782;48.984;8.548;2023-04-03T11:51:40;100912.53;;;10.26;44.14
32298;BME280;18782;48.984;8.548;2023-04-03T11:54:42;100916.34;;;10.36;42.42
32298;BME280;18782;48.984;8.548;2023-04-03T12:00:45;100899.19;;;10.80;42.39
32298;BME280;18782;48.984;8.548;2023-04-03T12:12:26;100890.47;;;10.33;42.81
32298;BME280;18782;48.984;8.548;2023-04-03T12:14:55;100899.84;;;10.31;42.46
32298;BME280;18782;48.984;8.548;2023-04-03T12:17:26;100891.72;;;10.22;42.90
32298;BME280;18782;48.984;8.548;2023-04-03T12:19:55;100897.13;;;10.28;44.26
32298;BME280;18782;48.984;8.548;2023-04-03T12:22:23;100890.47;;;10.33;44.49
32298;BME280;18782;48.984;8.548;2023-04-03T12:24:52;100885.47;;;10.36;43.22
32298;BME280;18782;48.984;8.548;2023-04-03T12:27:25;100878.69;;;10.38;43.02
32298;BME280;18782;48.984;8.548;2023-04-03T12:29:58;100874.75;;;9.85;43.67
32298;BME280;18782;48.984;8.548;2023-04-03T12:32:43;100874.38;;;9.97;43.62
32298;BME280;18782;48.984;8.548;2023-04-03T12:35:21;100876.69;;;9.90;43.32
32298;BME280;18782;48.984;8.548;2023-04-03T12:38:20;100871.78;;;9.76;42.87
32298;BME280;18782;48.984;8.548;2023-04-03T12:40:57;100873.41;;;9.93;42.88
32298;BME280;18782;48.984;8.548;2023-04-03T12:43:37;100873.50;;;9.96;43.30
32298;BME280;18782;48.984;8.548;2023-04-03T12:46:12;100883.44;;;9.87;43.24
32298;BME280;18782;48.984;8.548;2023-04-03T12:48:49;100872.50;;;9.72;44.10
32298;BME280;18782;48.984;8.548;2023-04-03T12:51:20;100876.41;;;9.63;43.50
32298;BME280;18782;48.984;8.548;2023-04-03T12:53:51;100875.59;;;9.64;44.20
32298;BME280;18782;48.984;8.548;2023-04-03T12:56:25;100872.91;;;9.61;43.75
32298;BME280;18782;48.984;8.548;2023-04-03T12:58:55;100863.56;;;9.63;43.73
32298;BME280;18782;48.984;8.548;2023-04-03T13:01:25;100872.09;;;9.62;43.84
32298;BME280;18782;48.984;8.548;2023-04-03T13:03:56;100871.41;;;9.66;43.55
32298;BME280;18782;48.984;8.548;2023-04-03T13:06:27;100862.47;;;9.78;43.60
32298;BME280;18782;48.984;8.548;2023-04-03T13:08:56;100867.84;;;9.84;43.86
32298;BME280;18782;48.984;8.548;2023-04-03T13:11:25;100866.09;;;9.83;43.81
32298;BME280;18782;48.984;8.548;2023-04-03T13:13:57;100866.53;;;9.73;42.68
32298;BME280;18782;48.984;8.548;2023-04-03T13:16:26;100865.84;;;9.77;43.78
32298;BME280;18782;48.984;8.548;2023-04-03T13:18:54;100861.72;;;10.01;44.05
32298;BME280;18782;48.984;8.548;2023-04-03T13:21:24;100859.91;;;10.19;43.09
32298;BME280;18782;48.984;8.548;2023-04-03T13:23:55;100858.66;;;10.31;44.36
32298;BME280;18782;48.984;8.548;2023-04-03T13:26:37;100859.72;;;10.36;42.64
32298;BME280;18782;48.984;8.548;2023-04-03T13:29:17;100863.22;;;10.38;42.15
32298;BME280;18782;48.984;8.548;2023-04-03T13:31:53;100861.25;;;10.31;41.44
32298;BME280;18782;48.984;8.548;2023-04-03T13:34:24;100863.84;;;10.11;42.46
32298;BME280;18782;48.984;8.548;2023-04-03T13:36:57;100864.47;;;10.06;42.75
32298;BME280;18782;48.984;8.548;2023-04-03T13:39:27;100863.75;;;10.08;41.98